createdAt,value
2019-05-01T00:01:04.175Z,6.12
2019-05-01T00:03:55.760Z,6.33
2019-05-01T00:06:31.483Z,7.08
2019-05-01T00:09:01.515Z,7.33
2019-05-01T00:11:31.350Z,6.50
2019-05-01T00:14:01.313Z,5.65
2019-05-01T00:16:31.162Z,7.10
2019-05-01T00:19:01.123Z,6.85
2019-05-01T00:21:30.924Z,6.47
2019-05-01T00:24:00.882Z,6.33
2019-05-01T00:26:30.777Z,7.17
2019-05-01T00:29:00.704Z,6.67
2019-05-01T00:31:30.525Z,7.15
2019-05-01T00:34:00.328Z,6.70
2019-05-01T00:36:30.275Z,7.28
2019-05-01T00:39:00.142Z,7.28
2019-05-01T00:41:29.949Z,6.37
2019-05-01T00:43:59.791Z,6.45
2019-05-01T00:46:29.652Z,8.15
2019-05-01T00:48:59.449Z,8.18
2019-05-01T00:51:29.249Z,7.72
2019-05-01T00:53:59.065Z,8.90
2019-05-01T00:56:37.051Z,9.90
2019-05-01T00:59:17.751Z,9.45
2019-05-01T01:02:15.888Z,7.70
2019-05-01T01:04:45.727Z,9.35
2019-05-01T01:07:15.599Z,8.00
2019-05-01T01:09:45.400Z,9.35
2019-05-01T01:12:15.318Z,8.43
2019-05-01T01:14:45.146Z,10.15
2019-05-01T01:17:15.058Z,9.58
2019-05-01T01:19:44.910Z,9.23
2019-05-01T01:22:14.740Z,8.88
2019-05-01T01:24:44.721Z,9.38
2019-05-01T01:27:15.154Z,8.90
2019-05-01T01:29:45.118Z,10.58
2019-05-01T01:32:14.895Z,9.83
2019-05-01T01:34:44.702Z,9.48
2019-05-01T01:37:14.631Z,8.53
2019-05-01T01:39:44.507Z,10.23
2019-05-01T01:42:14.426Z,8.68
2019-05-01T01:44:50.965Z,8.30
2019-05-01T01:47:21.320Z,8.78
2019-05-01T01:49:51.258Z,9.45
2019-05-01T01:52:21.677Z,9.80
2019-05-01T01:54:51.611Z,9.98
2019-05-01T01:57:21.708Z,8.80
2019-05-01T01:59:53.082Z,9.18
2019-05-01T02:02:46.978Z,9.83
2019-05-01T02:05:19.687Z,9.33
2019-05-01T02:07:51.283Z,9.70
2019-05-01T02:10:20.504Z,10.90
2019-05-01T02:12:49.763Z,10.03
2019-05-01T02:15:18.948Z,9.20
2019-05-01T02:17:48.071Z,9.75
2019-05-01T02:20:19.433Z,9.03
2019-05-01T02:22:49.268Z,7.33
2019-05-01T02:25:19.432Z,6.35
2019-05-01T02:28:11.405Z,9.70
2019-05-01T02:30:44.434Z,9.20
2019-05-01T02:33:14.667Z,8.78
2019-05-01T02:35:45.651Z,9.48
2019-05-01T02:38:17.364Z,8.75
2019-05-01T02:40:57.498Z,10.00
2019-05-01T02:43:29.407Z,9.68
2019-05-01T02:46:01.869Z,9.38
2019-05-01T02:48:35.721Z,10.35
2019-05-01T02:51:06.606Z,10.03
2019-05-01T02:53:39.427Z,9.10
2019-05-01T02:56:20.656Z,11.00
2019-05-01T02:58:52.802Z,11.48
2019-05-01T03:01:23.370Z,11.65
2019-05-01T03:03:53.545Z,11.83
2019-05-01T03:06:23.500Z,11.03
2019-05-01T03:08:55.306Z,11.12
2019-05-01T03:11:25.079Z,12.55
2019-05-01T03:13:57.883Z,12.25
2019-05-01T03:16:27.816Z,11.68
2019-05-01T03:19:00.315Z,11.48
2019-05-01T03:21:43.977Z,13.45
2019-05-01T03:24:18.397Z,11.90
2019-05-01T03:26:47.531Z,11.00
2019-05-01T03:29:16.660Z,12.05
2019-05-01T03:32:13.291Z,12.95
2019-05-01T03:34:18.319Z,11.80
2019-05-01T03:36:48.714Z,11.43
2019-05-01T03:39:18.634Z,11.20
2019-05-01T03:41:48.851Z,11.38
2019-05-01T03:44:19.282Z,11.35
2019-05-01T03:46:50.260Z,11.95
2019-05-01T03:49:20.154Z,11.12
2019-05-01T03:51:49.919Z,11.20
2019-05-01T03:54:19.835Z,11.60
2019-05-01T03:56:49.711Z,12.10
2019-05-01T03:59:20.063Z,14.98
2019-05-01T04:02:11.775Z,18.40
2019-05-01T04:04:41.714Z,12.28
2019-05-01T04:07:13.244Z,11.25
2019-05-01T04:09:43.339Z,11.05
2019-05-01T04:12:13.362Z,11.20
2019-05-01T04:14:43.418Z,11.03
2019-05-01T04:17:19.572Z,11.73
2019-05-01T04:19:48.731Z,9.65
2019-05-01T04:22:17.819Z,12.28
2019-05-01T04:24:47.000Z,11.30
2019-05-01T04:27:21.567Z,10.25
2019-05-01T04:30:10.181Z,10.58
2019-05-01T04:32:51.716Z,10.85
2019-05-01T04:35:29.522Z,15.83
2019-05-01T04:37:59.691Z,18.77
2019-05-01T04:40:28.803Z,15.08
2019-05-01T04:42:58.207Z,11.93
2019-05-01T04:45:28.376Z,10.55
2019-05-01T04:47:57.588Z,11.08
2019-05-01T04:50:26.711Z,12.07
2019-05-01T04:52:55.906Z,10.23
2019-05-01T04:55:25.161Z,11.30
2019-05-01T04:57:54.327Z,11.63
2019-05-01T05:00:23.786Z,11.93
2019-05-01T05:03:04.847Z,11.75
2019-05-01T05:05:32.356Z,12.40
2019-05-01T05:08:01.782Z,9.88
2019-05-01T05:10:31.141Z,12.43
2019-05-01T05:13:22.042Z,12.05
2019-05-01T05:15:58.879Z,12.03
2019-05-01T05:18:27.938Z,12.53
2019-05-01T05:20:57.144Z,11.25
2019-05-01T05:23:26.424Z,12.50
2019-05-01T05:25:55.763Z,11.68
2019-05-01T05:28:25.886Z,11.70
2019-05-01T05:30:55.187Z,11.65
2019-05-01T05:33:25.164Z,12.35
2019-05-01T05:35:54.553Z,12.33
2019-05-01T05:38:45.662Z,11.53
2019-05-01T05:41:15.102Z,11.85
2019-05-01T05:43:45.299Z,12.05
2019-05-01T05:46:14.451Z,11.90
2019-05-01T05:48:43.851Z,11.08
2019-05-01T05:51:35.954Z,9.95
2019-05-01T05:54:13.688Z,9.23
2019-05-01T05:56:50.603Z,8.75
2019-05-01T05:59:23.692Z,8.43
2019-05-01T06:02:11.737Z,8.18
2019-05-01T06:05:09.638Z,7.67
2019-05-01T06:07:49.652Z,7.70
2019-05-01T06:10:35.921Z,6.95
2019-05-01T06:13:17.887Z,6.33
2019-05-01T06:16:23.222Z,6.85
2019-05-01T06:19:17.857Z,5.90
2019-05-01T06:22:24.079Z,6.53
2019-05-01T06:24:59.977Z,7.37
2019-05-01T06:27:31.694Z,6.80
2019-05-01T06:30:02.519Z,5.87
2019-05-01T06:32:33.615Z,7.00
2019-05-01T06:35:04.661Z,5.12
2019-05-01T06:38:02.413Z,6.42
2019-05-01T06:40:44.407Z,7.40
2019-05-01T06:43:28.207Z,6.35
2019-05-01T06:46:15.486Z,6.05
2019-05-01T06:48:53.524Z,6.80
2019-05-01T06:51:41.134Z,6.65
2019-05-01T06:54:16.229Z,5.92
2019-05-01T06:56:45.392Z,6.10
2019-05-01T06:59:16.454Z,6.60
2019-05-01T07:01:47.704Z,6.55
2019-05-01T07:04:17.823Z,7.50
2019-05-01T07:06:47.905Z,5.90
2019-05-01T07:09:27.730Z,5.95
2019-05-01T07:11:52.620Z,6.37
2019-05-01T07:14:22.648Z,5.87
2019-05-01T07:16:53.517Z,5.17
2019-05-01T07:19:41.961Z,5.22
2019-05-01T07:22:18.869Z,5.78
2019-05-01T07:25:04.129Z,5.47
2019-05-01T07:27:34.286Z,4.70
2019-05-01T07:30:42.610Z,4.62
2019-05-01T07:33:16.686Z,4.33
2019-05-01T07:35:46.386Z,4.40
2019-05-01T07:38:16.357Z,4.45
2019-05-01T07:40:46.351Z,5.10
2019-05-01T07:43:28.203Z,4.30
2019-05-01T07:46:18.375Z,4.30
2019-05-01T07:48:48.050Z,4.75
2019-05-01T07:51:17.977Z,4.37
2019-05-01T07:53:48.174Z,4.35
2019-05-01T07:56:17.509Z,3.92
2019-05-01T07:58:51.587Z,6.55
2019-05-01T08:01:24.035Z,4.50
2019-05-01T08:03:53.831Z,2.98
2019-05-01T08:06:23.928Z,3.25
2019-05-01T08:08:54.020Z,4.12
2019-05-01T08:11:23.885Z,3.67
2019-05-01T08:14:07.097Z,4.42
2019-05-01T08:16:27.598Z,4.40
2019-05-01T08:19:04.045Z,3.65
2019-05-01T08:22:03.042Z,4.90
2019-05-01T08:24:33.034Z,4.53
2019-05-01T08:27:08.847Z,4.50
2019-05-01T08:30:01.011Z,3.75
2019-05-01T08:32:54.302Z,3.80
2019-05-01T08:35:25.639Z,3.15
2019-05-01T08:38:00.067Z,4.80
2019-05-01T08:40:29.643Z,5.78
2019-05-01T08:42:59.476Z,3.15
2019-05-01T08:45:46.772Z,4.40
2019-05-01T08:48:30.780Z,4.10
2019-05-01T08:51:00.481Z,3.83
2019-05-01T08:53:30.687Z,3.87
2019-05-01T08:56:00.051Z,3.75
2019-05-01T08:58:29.196Z,4.28
2019-05-01T09:01:02.403Z,4.92
2019-05-01T09:03:38.393Z,5.83
2019-05-01T09:06:07.535Z,4.40
2019-05-01T09:08:37.426Z,4.22
2019-05-01T09:11:07.894Z,4.05
2019-05-01T09:13:38.848Z,4.65
2019-05-01T09:16:08.704Z,4.45
2019-05-01T09:18:43.526Z,4.65
2019-05-01T09:21:12.618Z,5.20
2019-05-01T09:23:51.585Z,4.60
2019-05-01T09:26:55.691Z,5.03
2019-05-01T09:29:29.456Z,4.20
2019-05-01T09:31:58.791Z,4.42
2019-05-01T09:34:30.435Z,5.78
2019-05-01T09:37:02.593Z,4.60
2019-05-01T09:39:32.700Z,5.85
2019-05-01T09:42:02.688Z,6.40
2019-05-01T09:44:32.736Z,6.00
2019-05-01T09:47:04.013Z,5.60
2019-05-01T09:49:34.290Z,4.75
2019-05-01T09:52:24.821Z,6.25
2019-05-01T09:55:17.860Z,6.92
2019-05-01T09:57:46.636Z,6.30
2019-05-01T10:00:31.514Z,5.97
2019-05-01T10:03:00.786Z,5.42
2019-05-01T10:05:30.137Z,6.95
2019-05-01T10:08:00.034Z,5.22
2019-05-01T10:10:31.275Z,6.03
2019-05-01T10:13:00.440Z,6.40
2019-05-01T10:15:29.773Z,6.53
2019-05-01T10:17:59.649Z,7.70
2019-05-01T10:20:28.874Z,6.65
2019-05-01T10:22:57.975Z,6.60
2019-05-01T10:25:28.063Z,7.53
2019-05-01T10:28:07.106Z,7.35
2019-05-01T10:30:51.894Z,7.50
2019-05-01T10:33:24.088Z,8.48
2019-05-01T10:36:31.598Z,7.65
2019-05-01T10:39:02.396Z,8.15
2019-05-01T10:41:32.346Z,6.85
2019-05-01T10:44:02.403Z,9.23
2019-05-01T10:46:32.703Z,8.23
2019-05-01T10:49:06.170Z,7.80
2019-05-01T10:51:39.616Z,10.70
2019-05-01T10:54:16.953Z,9.70
2019-05-01T10:56:50.775Z,9.13
2019-05-01T10:59:20.753Z,9.85
2019-05-01T11:01:57.044Z,9.73
2019-05-01T11:04:26.994Z,11.75
2019-05-01T11:06:56.926Z,11.08
2019-05-01T11:09:26.708Z,12.03
2019-05-01T11:11:56.578Z,10.90
2019-05-01T11:14:26.495Z,13.15
2019-05-01T11:16:56.355Z,13.53
2019-05-01T11:19:26.167Z,12.70
2019-05-01T11:21:58.089Z,11.70
2019-05-01T11:24:27.933Z,12.65
2019-05-01T11:26:57.731Z,11.90
2019-05-01T11:29:28.912Z,12.75
2019-05-01T11:32:20.503Z,12.35
2019-05-01T11:35:15.168Z,15.28
2019-05-01T11:38:02.102Z,15.43
2019-05-01T11:40:38.673Z,15.05
2019-05-01T11:43:08.690Z,15.20
2019-05-01T11:45:40.617Z,16.02
2019-05-01T11:48:10.667Z,17.73
2019-05-01T11:50:40.758Z,16.65
2019-05-01T11:53:10.521Z,16.97
2019-05-01T11:55:40.506Z,17.50
2019-05-01T11:58:12.159Z,16.97
2019-05-01T12:00:49.746Z,18.40
2019-05-01T12:03:21.283Z,20.20
2019-05-01T12:05:55.529Z,19.73
2019-05-01T12:08:33.664Z,19.75
2019-05-01T12:11:06.798Z,20.05
2019-05-01T12:13:43.810Z,20.00
2019-05-01T12:16:22.759Z,17.87
2019-05-01T12:18:52.545Z,20.70
2019-05-01T12:21:22.472Z,20.50
2019-05-01T12:23:53.307Z,19.05
2019-05-01T12:26:23.398Z,20.00
2019-05-01T12:28:53.335Z,20.77
2019-05-01T12:31:27.939Z,18.87
2019-05-01T12:34:01.999Z,20.12
2019-05-01T12:36:36.419Z,18.65
2019-05-01T12:39:04.463Z,18.25
2019-05-01T12:41:56.283Z,20.02
2019-05-01T12:44:27.642Z,20.77
2019-05-01T12:47:05.430Z,19.67
2019-05-01T12:49:35.879Z,21.27
2019-05-01T12:52:11.151Z,20.27
2019-05-01T12:54:52.554Z,22.73
2019-05-01T12:57:24.862Z,18.92
2019-05-01T13:00:08.129Z,21.05
2019-05-01T13:02:30.648Z,22.50
2019-05-01T13:05:00.909Z,20.52
2019-05-01T13:07:32.522Z,18.60
2019-05-01T13:10:05.316Z,20.48
2019-05-01T13:12:35.759Z,22.65
2019-05-01T13:15:09.926Z,20.88
2019-05-01T13:17:40.603Z,20.65
2019-05-01T13:20:14.037Z,21.40
2019-05-01T13:22:44.137Z,19.65
2019-05-01T13:25:16.260Z,21.37
2019-05-01T13:28:12.591Z,22.52
2019-05-01T13:31:00.026Z,23.47
2019-05-01T13:33:29.944Z,21.68
2019-05-01T13:36:00.083Z,23.22
2019-05-01T13:38:34.614Z,23.10
2019-05-01T13:41:04.448Z,22.20
2019-05-01T13:43:36.154Z,22.30
2019-05-01T13:46:06.010Z,21.65
2019-05-01T13:48:35.872Z,22.52
2019-05-01T13:51:05.851Z,23.00
2019-05-01T13:53:35.715Z,25.62
2019-05-01T13:56:06.165Z,23.60
2019-05-01T13:58:36.346Z,23.80
2019-05-01T14:01:06.401Z,22.67
2019-05-01T14:03:36.594Z,22.58
2019-05-01T14:06:08.701Z,23.73
2019-05-01T14:08:59.253Z,20.25
2019-05-01T14:11:29.194Z,23.25
2019-05-01T14:13:59.288Z,23.22
2019-05-01T14:16:30.150Z,23.15
2019-05-01T14:18:59.967Z,25.45
2019-05-01T14:21:37.430Z,23.62
2019-05-01T14:24:25.277Z,27.62
2019-05-01T14:26:55.159Z,30.27
2019-05-01T14:29:25.058Z,28.23
2019-05-01T14:31:54.981Z,27.70
2019-05-01T14:34:24.909Z,28.65
2019-05-01T14:36:54.756Z,27.87
2019-05-01T14:39:25.371Z,27.70
2019-05-01T14:41:55.591Z,28.27
2019-05-01T14:44:36.289Z,27.82
2019-05-01T14:46:58.687Z,28.38
2019-05-01T14:49:32.942Z,28.17
2019-05-01T14:52:03.193Z,29.15
2019-05-01T14:54:32.996Z,27.87
2019-05-01T14:57:02.958Z,29.30
2019-05-01T14:59:32.845Z,27.27
2019-05-01T15:02:02.013Z,25.37
2019-05-01T15:04:31.140Z,24.47
2019-05-01T15:07:01.034Z,25.52
2019-05-01T15:09:30.947Z,26.97
2019-05-01T15:12:00.986Z,24.45
2019-05-01T15:14:40.407Z,24.10
2019-05-01T15:17:17.954Z,23.20
2019-05-01T15:20:06.990Z,24.57
2019-05-01T15:22:36.798Z,22.52
2019-05-01T15:25:06.785Z,23.25
2019-05-01T15:27:36.618Z,24.43
2019-05-01T15:30:08.771Z,23.75
2019-05-01T15:32:38.640Z,22.70
2019-05-01T15:35:08.779Z,24.40
2019-05-01T15:37:38.728Z,23.42
2019-05-01T15:40:19.241Z,25.43
2019-05-01T15:42:59.610Z,26.23
2019-05-01T15:45:29.471Z,27.73
2019-05-01T15:47:59.375Z,26.15
2019-05-01T15:50:29.196Z,26.52
2019-05-01T15:52:59.347Z,26.82
2019-05-01T15:55:29.302Z,25.15
2019-05-01T15:57:59.254Z,27.42
2019-05-01T16:00:29.120Z,27.42
2019-05-01T16:02:59.067Z,25.08
2019-05-01T16:05:29.006Z,24.15
2019-05-01T16:08:09.122Z,26.87
2019-05-01T16:10:35.783Z,25.50
2019-05-01T16:13:05.890Z,27.05
2019-05-01T16:15:38.543Z,29.45
2019-05-01T16:18:08.611Z,28.98
2019-05-01T16:20:38.532Z,28.80
2019-05-01T16:23:08.298Z,27.52
2019-05-01T16:25:39.476Z,25.85
2019-05-01T16:28:09.293Z,28.20
2019-05-01T16:30:39.156Z,27.42
2019-05-01T16:33:09.097Z,27.30
2019-05-01T16:35:39.521Z,26.27
2019-05-01T16:38:22.715Z,25.45
2019-05-01T16:41:07.992Z,28.90
2019-05-01T16:43:37.894Z,30.15
2019-05-01T16:46:08.783Z,28.07
2019-05-01T16:48:38.646Z,27.75
2019-05-01T16:51:08.606Z,28.73
2019-05-01T16:53:38.530Z,30.62
2019-05-01T16:56:08.423Z,32.78
2019-05-01T16:58:39.258Z,28.15
2019-05-01T17:01:28.085Z,33.30
2019-05-01T17:04:19.989Z,30.00
2019-05-01T17:07:14.623Z,32.75
2019-05-01T17:09:58.451Z,29.60
2019-05-01T17:12:34.600Z,32.28
2019-05-01T17:15:04.439Z,29.52
2019-05-01T17:17:34.480Z,31.10
2019-05-01T17:20:04.630Z,29.52
2019-05-01T17:22:34.434Z,30.15
2019-05-01T17:25:05.063Z,29.50
2019-05-01T17:27:35.487Z,28.90
2019-05-01T17:30:08.020Z,28.92
2019-05-01T17:32:39.790Z,27.95
2019-05-01T17:35:11.151Z,28.23
2019-05-01T17:37:42.217Z,27.90
2019-05-01T17:40:12.690Z,27.75
2019-05-01T17:42:42.933Z,27.60
2019-05-01T17:45:13.066Z,27.32
2019-05-01T17:47:43.334Z,26.48
2019-05-01T17:50:16.414Z,27.58
2019-05-01T17:52:48.852Z,28.98
2019-05-01T17:55:23.700Z,28.92
2019-05-01T17:57:53.631Z,27.90
2019-05-01T18:00:51.652Z,28.42
2019-05-01T18:03:44.969Z,26.30
2019-05-01T18:06:33.721Z,24.77
2019-05-01T18:09:08.019Z,26.35
2019-05-01T18:11:39.521Z,26.10
2019-05-01T18:14:09.515Z,28.35
2019-05-01T18:16:39.582Z,26.85
2019-05-01T18:19:11.189Z,26.62
2019-05-01T18:21:46.794Z,26.17
2019-05-01T18:24:53.874Z,27.45
2019-05-01T18:27:40.118Z,28.30
2019-05-01T18:30:15.906Z,28.23
2019-05-01T18:32:47.413Z,30.12
2019-05-01T18:35:16.788Z,30.43
2019-05-01T18:38:10.934Z,31.00
2019-05-01T18:40:42.275Z,31.07
2019-05-01T18:43:12.186Z,30.77
2019-05-01T18:45:55.920Z,30.72
2019-05-01T18:48:26.257Z,29.42
2019-05-01T18:50:56.564Z,29.35
2019-05-01T18:53:26.600Z,32.53
2019-05-01T18:56:01.210Z,30.65
2019-05-01T18:58:28.287Z,29.32
2019-05-01T19:00:58.605Z,29.80
2019-05-01T19:03:29.968Z,30.95
2019-05-01T19:06:00.465Z,32.05
2019-05-01T19:08:30.347Z,30.20
2019-05-01T19:11:11.715Z,29.82
2019-05-01T19:13:31.988Z,30.57
2019-05-01T19:16:03.393Z,28.95
2019-05-01T19:18:33.786Z,29.37
2019-05-01T19:21:04.103Z,29.27
2019-05-01T19:23:34.498Z,27.98
2019-05-01T19:26:07.678Z,29.25
2019-05-01T19:28:37.523Z,30.23
2019-05-01T19:31:07.418Z,30.10
2019-05-01T19:33:41.687Z,27.52
2019-05-01T19:36:10.330Z,28.05
2019-05-01T19:38:40.440Z,27.37
2019-05-01T19:41:14.073Z,27.52
2019-05-01T19:43:42.154Z,26.50
2019-05-01T19:46:14.257Z,26.57
2019-05-01T19:48:56.816Z,25.10
2019-05-01T19:51:26.719Z,25.92
2019-05-01T19:53:57.389Z,26.37
2019-05-01T19:56:27.890Z,26.12
2019-05-01T19:59:00.240Z,25.05
2019-05-01T20:01:30.275Z,26.20
2019-05-01T20:04:00.250Z,24.98
2019-05-01T20:06:30.310Z,26.25
2019-05-01T20:09:00.244Z,26.20
2019-05-01T20:11:30.155Z,24.52
2019-05-01T20:14:01.479Z,25.60
2019-05-01T20:16:30.746Z,25.60
2019-05-01T20:18:59.893Z,27.20
2019-05-01T20:21:28.975Z,26.62
2019-05-01T20:23:58.136Z,28.32
2019-05-01T20:26:32.038Z,27.77
2019-05-01T20:29:00.434Z,27.27
2019-05-01T20:31:32.603Z,27.90
2019-05-01T20:34:00.625Z,25.82
2019-05-01T20:36:29.959Z,27.37
2019-05-01T20:38:59.262Z,25.85
2019-05-01T20:41:28.508Z,27.87
2019-05-01T20:43:57.696Z,28.20
2019-05-01T20:46:28.054Z,28.35
2019-05-01T20:49:01.000Z,29.20
2019-05-01T20:51:28.059Z,29.65
2019-05-01T20:53:57.130Z,28.32
2019-05-01T20:56:34.926Z,29.80
2019-05-01T20:59:04.956Z,30.12
2019-05-01T21:01:34.380Z,28.80
2019-05-01T21:04:22.707Z,28.67
2019-05-01T21:07:15.612Z,30.75
2019-05-01T21:09:47.693Z,29.75
2019-05-01T21:12:16.521Z,31.50
2019-05-01T21:14:49.700Z,29.12
2019-05-01T21:17:16.513Z,32.20
2019-05-01T21:19:45.663Z,30.55
2019-05-01T21:22:14.837Z,30.95
2019-05-01T21:24:44.515Z,33.65
2019-05-01T21:27:13.815Z,32.33
2019-05-01T21:29:44.499Z,31.17
2019-05-01T21:32:18.163Z,31.93
2019-05-01T21:34:45.051Z,30.90
2019-05-01T21:37:14.293Z,31.37
2019-05-01T21:39:43.717Z,31.80
2019-05-01T21:42:15.827Z,32.35
2019-05-01T21:44:46.553Z,34.65
2019-05-01T21:47:15.751Z,31.80
2019-05-01T21:49:45.130Z,33.50
2019-05-01T21:52:18.019Z,30.43
2019-05-01T21:54:45.212Z,30.65
2019-05-01T21:57:17.288Z,30.82
2019-05-01T21:59:48.153Z,31.87
2019-05-01T22:02:17.482Z,32.55
2019-05-01T22:04:46.582Z,31.20
2019-05-01T22:07:15.667Z,32.53
2019-05-01T22:09:45.596Z,34.65
2019-05-01T22:12:15.587Z,30.08
2019-05-01T22:14:56.697Z,31.60
2019-05-01T22:17:46.165Z,35.13
2019-05-01T22:20:17.370Z,32.70
2019-05-01T22:22:51.061Z,32.35
2019-05-01T22:25:39.122Z,32.13
2019-05-01T22:28:13.999Z,30.62
2019-05-01T22:30:48.935Z,32.42
2019-05-01T22:33:18.107Z,31.10
2019-05-01T22:35:49.609Z,29.72
2019-05-01T22:38:18.822Z,30.50
2019-05-01T22:41:06.017Z,32.38
2019-05-01T22:43:26.524Z,34.25
2019-05-01T22:45:56.240Z,33.28
2019-05-01T22:48:26.540Z,28.38
2019-05-01T22:50:58.493Z,32.63
2019-05-01T22:53:27.556Z,30.80
2019-05-01T22:56:02.378Z,33.25
2019-05-01T22:58:27.371Z,30.68
2019-05-01T23:00:57.682Z,32.13
2019-05-01T23:03:31.646Z,25.52
2019-05-01T23:06:02.034Z,33.63
2019-05-01T23:08:31.610Z,34.70
2019-05-01T23:11:00.702Z,30.50
2019-05-01T23:13:29.868Z,30.68
2019-05-01T23:15:59.027Z,29.85
2019-05-01T23:18:28.150Z,31.00
2019-05-01T23:20:57.237Z,31.87
2019-05-01T23:23:26.376Z,28.10
2019-05-01T23:25:55.417Z,26.85
2019-05-01T23:28:24.480Z,29.00
2019-05-01T23:30:53.771Z,28.05
2019-05-01T23:33:22.894Z,28.07
2019-05-01T23:35:51.963Z,27.20
2019-05-01T23:38:21.009Z,25.72
2019-05-01T23:40:51.133Z,24.45
2019-05-01T23:43:23.073Z,27.37
2019-05-01T23:45:51.501Z,25.27
2019-05-01T23:48:20.542Z,23.87
2019-05-01T23:50:49.662Z,23.05
2019-05-01T23:53:18.747Z,21.35
2019-05-01T23:55:47.818Z,23.67
2019-05-01T23:58:19.120Z,21.15
